Time,TemperatureF,DewpointF,PressureIn,WindDirection,WindDirectionDegrees,WindSpeedMPH,WindSpeedGustMPH,Humidity,HourlyPrecipIn,Conditions,Clouds,dailyrainin,SoftwareType,DateUTC
2013-05-22 00:01:00,49.7,49.0,30.00,NNE,15,0.0,0.0,97,0.15,,,0.77,weatherlink.com 1.10,2013-05-22 04:01:00,
2013-05-22 00:16:00,49.6,49.0,30.00,NNE,15,0.0,0.0,97,0.07,,,0.00,weatherlink.com 1.10,2013-05-22 04:16:00,
2013-05-22 00:31:00,49.5,49.0,29.98,NNE,15,0.0,0.0,97,0.02,,,0.00,weatherlink.com 1.10,2013-05-22 04:31:00,
2013-05-22 00:46:00,49.2,48.0,29.97,NNE,15,0.0,0.0,97,0.00,,,0.00,weatherlink.com 1.10,2013-05-22 04:46:00,
2013-05-22 01:01:00,49.1,48.0,29.97,NNE,15,0.0,0.0,97,0.00,,,0.00,weatherlink.com 1.10,2013-05-22 05:01:00,
2013-05-22 01:16:00,49.0,48.0,29.95,NNE,15,0.0,0.0,97,0.00,,,0.00,weatherlink.com 1.10,2013-05-22 05:16:00,
2013-05-22 01:31:00,48.8,48.0,29.96,NNE,15,0.0,0.0,97,0.00,,,0.00,weatherlink.com 1.10,2013-05-22 05:31:00,
2013-05-22 01:46:00,48.8,48.0,29.94,NNE,15,0.0,0.0,97,0.00,,,0.00,weatherlink.com 1.10,2013-05-22 05:46:00,
2013-05-22 02:01:00,48.9,48.0,29.95,NNE,15,0.0,0.0,97,0.00,,,0.00,weatherlink.com 1.10,2013-05-22 06:01:00,
2013-05-22 02:16:00,49.1,48.0,29.95,NNE,15,0.0,0.0,97,0.00,,,0.00,weatherlink.com 1.10,2013-05-22 06:16:00,
2013-05-22 02:31:00,49.1,48.0,29.95,NNE,15,0.0,0.0,97,0.00,,,0.00,weatherlink.com 1.10,2013-05-22 06:31:00,
2013-05-22 02:46:00,49.0,48.0,29.95,NNE,15,0.0,0.0,97,0.00,,,0.00,weatherlink.com 1.10,2013-05-22 06:46:00,
2013-05-22 03:01:00,49.0,48.0,29.94,NNE,15,0.0,0.0,97,0.00,,,0.00,weatherlink.com 1.10,2013-05-22 07:01:00,
2013-05-22 03:16:00,49.2,49.0,29.94,NNE,15,0.0,0.0,98,0.00,,,0.00,weatherlink.com 1.10,2013-05-22 07:16:00,
2013-05-22 03:31:00,49.2,49.0,29.94,NNE,15,0.0,0.0,98,0.01,,,0.01,weatherlink.com 1.10,2013-05-22 07:31:00,
2013-05-22 03:46:00,49.2,49.0,29.93,NNE,15,0.0,0.0,98,0.02,,,0.02,weatherlink.com 1.10,2013-05-22 07:46:00,
2013-05-22 04:01:00,49.1,49.0,29.93,NNE,15,0.0,0.0,98,0.03,,,0.03,weatherlink.com 1.10,2013-05-22 08:01:00,
2013-05-22 04:16:00,48.9,48.0,29.92,NNE,15,0.0,0.0,97,0.04,,,0.04,weatherlink.com 1.10,2013-05-22 08:16:00,
2013-05-22 04:31:00,48.8,48.0,29.92,NNE,15,0.0,0.0,97,0.06,,,0.07,weatherlink.com 1.10,2013-05-22 08:31:00,
2013-05-22 04:46:00,48.7,48.0,29.90,NNE,15,0.0,0.0,97,0.08,,,0.10,weatherlink.com 1.10,2013-05-22 08:46:00,
2013-05-22 05:01:00,48.7,48.0,29.91,NNE,15,0.0,0.0,98,0.07,,,0.10,weatherlink.com 1.10,2013-05-22 09:01:00,
2013-05-22 05:16:00,48.7,48.0,29.90,NNE,15,0.0,0.0,98,0.06,,,0.10,weatherlink.com 1.10,2013-05-22 09:16:00,
2013-05-22 05:31:00,48.6,48.0,29.90,NNE,15,0.0,0.0,98,0.03,,,0.10,weatherlink.com 1.10,2013-05-22 09:31:00,
2013-05-22 05:46:00,48.6,48.0,29.90,NNE,15,0.0,0.0,98,0.00,,,0.10,weatherlink.com 1.10,2013-05-22 09:46:00,
2013-05-22 06:01:00,48.7,48.0,29.90,NNE,15,0.0,0.0,98,0.00,,,0.10,weatherlink.com 1.10,2013-05-22 10:01:00,
2013-05-22 06:16:00,48.8,48.0,29.91,NNE,15,0.0,0.0,98,0.00,,,0.10,weatherlink.com 1.10,2013-05-22 10:16:00,
2013-05-22 06:31:00,48.8,48.0,29.92,NNE,15,0.0,0.0,98,0.00,,,0.10,weatherlink.com 1.10,2013-05-22 10:31:00,
2013-05-22 06:46:00,48.7,48.0,29.91,NNE,15,0.0,0.0,98,0.00,,,0.10,weatherlink.com 1.10,2013-05-22 10:46:00,
2013-05-22 07:01:00,48.8,48.0,29.91,NNE,15,0.0,0.0,98,0.00,,,0.10,weatherlink.com 1.10,2013-05-22 11:01:00,
2013-05-22 07:16:00,48.9,48.0,29.91,NNE,15,0.0,0.0,98,0.00,,,0.10,weatherlink.com 1.10,2013-05-22 11:16:00,
2013-05-22 07:31:00,49.1,49.0,29.92,NNE,15,0.0,0.0,98,0.00,,,0.10,weatherlink.com 1.10,2013-05-22 11:31:00,
2013-05-22 07:46:00,49.2,49.0,29.92,North,5,0.0,1.0,98,0.00,,,0.10,weatherlink.com 1.10,2013-05-22 11:46:00,
2013-05-22 08:01:00,49.4,49.0,29.91,North,5,0.0,0.0,98,0.00,,,0.10,weatherlink.com 1.10,2013-05-22 12:01:00,
2013-05-22 08:16:00,49.5,49.0,29.92,North,5,0.0,0.0,98,0.00,,,0.10,weatherlink.com 1.10,2013-05-22 12:16:00,
2013-05-22 08:31:00,49.9,49.0,29.92,North,5,0.0,0.0,98,0.00,,,0.10,weatherlink.com 1.10,2013-05-22 12:31:00,
2013-05-22 08:46:00,50.2,50.0,29.92,North,11,0.0,0.0,98,0.00,,,0.10,weatherlink.com 1.10,2013-05-22 12:46:00,
2013-05-22 09:01:00,50.3,50.0,29.92,North,11,0.0,0.0,97,0.00,,,0.10,weatherlink.com 1.10,2013-05-22 13:01:00,
2013-05-22 09:16:00,50.4,50.0,29.93,WNW,297,0.0,0.0,97,0.00,,,0.10,weatherlink.com 1.10,2013-05-22 13:16:00,
2013-05-22 09:31:00,50.9,50.0,29.92,WNW,297,0.0,0.0,97,0.00,,,0.10,weatherlink.com 1.10,2013-05-22 13:31:00,
2013-05-22 09:46:00,51.0,50.0,29.93,WNW,298,0.0,1.0,97,0.00,,,0.10,weatherlink.com 1.10,2013-05-22 13:46:00,
2013-05-22 10:01:00,51.3,51.0,29.93,NW,308,0.0,0.0,97,0.00,,,0.10,weatherlink.com 1.10,2013-05-22 14:01:00,
2013-05-22 10:16:00,51.7,51.0,29.93,NW,311,0.0,0.0,96,0.00,,,0.10,weatherlink.com 1.10,2013-05-22 14:16:00,
2013-05-22 10:32:00,51.8,51.0,29.94,NW,311,0.0,0.0,95,0.00,,,0.10,weatherlink.com 1.10,2013-05-22 14:32:00,
2013-05-22 10:47:00,51.9,51.0,29.94,NW,311,0.0,0.0,96,0.00,,,0.10,weatherlink.com 1.10,2013-05-22 14:47:00,
2013-05-22 11:02:00,52.3,51.0,29.93,NNE,27,1.0,4.0,94,0.00,,,0.10,weatherlink.com 1.10,2013-05-22 15:02:00,
2013-05-22 11:17:00,52.4,51.0,29.94,NE,36,0.0,4.0,93,0.00,,,0.10,weatherlink.com 1.10,2013-05-22 15:17:00,
2013-05-22 11:32:00,53.1,51.0,29.94,NNE,31,0.0,2.0,92,0.00,,,0.10,weatherlink.com 1.10,2013-05-22 15:32:00,
2013-05-22 11:47:00,54.0,51.0,29.94,NNE,17,0.0,4.0,89,0.00,,,0.10,weatherlink.com 1.10,2013-05-22 15:47:00,
2013-05-22 12:02:00,54.3,52.0,29.95,NNE,31,0.0,2.0,90,0.00,,,0.10,weatherlink.com 1.10,2013-05-22 16:02:00,
2013-05-22 12:17:00,54.2,51.0,29.95,NNE,31,0.0,0.0,89,0.00,,,0.10,weatherlink.com 1.10,2013-05-22 16:17:00,
2013-05-22 12:47:00,54.9,52.0,29.93,NE,47,0.0,4.0,90,0.00,,,0.10,weatherlink.com 1.10,2013-05-22 16:47:00,
2013-05-22 13:02:00,55.0,52.0,29.93,North,5,0.0,5.0,89,0.00,,,0.10,weatherlink.com 1.10,2013-05-22 17:02:00,
2013-05-22 13:17:00,55.6,52.0,29.93,SW,227,2.0,2.0,88,0.00,,,0.10,weatherlink.com 1.10,2013-05-22 17:17:00,
2013-05-22 13:32:00,56.2,53.0,29.93,SSW,193,0.0,0.0,88,0.00,,,0.10,weatherlink.com 1.10,2013-05-22 17:32:00,
2013-05-22 13:47:00,56.7,53.0,29.92,NNE,21,0.0,2.0,86,0.00,,,0.10,weatherlink.com 1.10,2013-05-22 17:47:00,
2013-05-22 14:02:00,57.1,53.0,29.92,NE,40,0.0,2.0,85,0.00,,,0.10,weatherlink.com 1.10,2013-05-22 18:02:00,
2013-05-22 14:32:00,57.2,53.0,29.92,West,273,0.0,1.0,86,0.00,,,0.10,weatherlink.com 1.10,2013-05-22 18:32:00,
2013-05-22 14:47:00,57.9,54.0,29.91,North,360,0.0,2.0,85,0.00,,,0.10,weatherlink.com 1.10,2013-05-22 18:47:00,
2013-05-22 15:02:00,57.7,53.0,29.91,North,360,0.0,1.0,85,0.00,,,0.10,weatherlink.com 1.10,2013-05-22 19:02:00,
2013-05-22 15:17:00,57.7,54.0,29.91,North,360,0.0,2.0,86,0.00,,,0.10,weatherlink.com 1.10,2013-05-22 19:17:00,
2013-05-22 15:32:00,57.5,54.0,29.92,North,360,0.0,1.0,87,0.00,,,0.10,weatherlink.com 1.10,2013-05-22 19:32:00,
2013-05-22 15:47:00,57.6,54.0,29.92,WNW,289,0.0,0.0,86,0.00,,,0.10,weatherlink.com 1.10,2013-05-22 19:47:00,
2013-05-22 16:02:00,57.2,54.0,29.92,West,261,0.0,0.0,88,0.00,,,0.10,weatherlink.com 1.10,2013-05-22 20:02:00,
2013-05-22 16:17:00,57.1,54.0,29.92,West,261,0.0,0.0,88,0.00,,,0.10,weatherlink.com 1.10,2013-05-22 20:17:00,
2013-05-22 16:32:00,56.9,54.0,29.91,West,261,0.0,0.0,89,0.00,,,0.10,weatherlink.com 1.10,2013-05-22 20:32:00,
2013-05-22 16:47:00,56.9,54.0,29.91,West,261,0.0,0.0,89,0.00,,,0.10,weatherlink.com 1.10,2013-05-22 20:47:00,
2013-05-22 17:02:00,56.7,54.0,29.92,West,261,0.0,0.0,89,0.00,,,0.10,weatherlink.com 1.10,2013-05-22 21:02:00,
2013-05-22 17:17:00,56.5,53.0,29.92,West,261,0.0,0.0,89,0.00,,,0.10,weatherlink.com 1.10,2013-05-22 21:17:00,
2013-05-22 17:32:00,56.4,54.0,29.92,West,261,0.0,0.0,90,0.00,,,0.10,weatherlink.com 1.10,2013-05-22 21:32:00,
2013-05-22 17:47:00,56.4,54.0,29.91,West,261,0.0,0.0,90,0.00,,,0.10,weatherlink.com 1.10,2013-05-22 21:47:00,
2013-05-22 18:02:00,56.0,53.0,29.91,West,261,0.0,0.0,90,0.00,,,0.10,weatherlink.com 1.10,2013-05-22 22:02:00,
2013-05-22 18:18:00,55.9,53.0,29.91,West,261,0.0,0.0,91,0.00,,,0.10,weatherlink.com 1.10,2013-05-22 22:18:00,
2013-05-22 18:33:00,55.7,53.0,29.92,West,261,0.0,0.0,91,0.00,,,0.10,weatherlink.com 1.10,2013-05-22 22:33:00,
2013-05-22 18:47:00,55.5,53.0,29.93,West,261,0.0,0.0,92,0.01,,,0.11,weatherlink.com 1.10,2013-05-22 22:47:00,
2013-05-22 19:02:00,55.2,53.0,29.93,West,261,0.0,0.0,93,0.02,,,0.12,weatherlink.com 1.10,2013-05-22 23:02:00,
2013-05-22 19:17:00,54.8,53.0,29.94,West,261,0.0,0.0,94,0.04,,,0.14,weatherlink.com 1.10,2013-05-22 23:17:00,
2013-05-22 19:33:00,54.6,53.0,29.94,West,261,0.0,0.0,95,0.06,,,0.16,weatherlink.com 1.10,2013-05-22 23:33:00,
2013-05-22 19:47:00,54.4,53.0,29.93,West,261,0.0,0.0,95,0.05,,,0.16,weatherlink.com 1.10,2013-05-22 23:47:00,
2013-05-22 20:02:00,54.2,53.0,29.93,West,261,0.0,0.0,96,0.04,,,0.16,weatherlink.com 1.10,2013-05-23 00:02:00,
2013-05-22 20:17:00,54.2,53.0,29.93,West,261,0.0,0.0,96,0.02,,,0.16,weatherlink.com 1.10,2013-05-23 00:17:00,
2013-05-22 20:32:00,54.0,53.0,29.93,West,261,0.0,0.0,96,0.00,,,0.16,weatherlink.com 1.10,2013-05-23 00:32:00,
2013-05-22 20:47:00,53.7,53.0,29.93,West,261,0.0,0.0,96,0.00,,,0.16,weatherlink.com 1.10,2013-05-23 00:47:00,
2013-05-22 21:02:00,53.6,53.0,29.93,West,261,0.0,0.0,96,0.00,,,0.16,weatherlink.com 1.10,2013-05-23 01:02:00,
2013-05-22 21:17:00,53.5,52.0,29.94,West,261,0.0,0.0,96,0.00,,,0.16,weatherlink.com 1.10,2013-05-23 01:17:00,
2013-05-22 21:32:00,53.4,52.0,29.95,West,261,0.0,0.0,96,0.00,,,0.16,weatherlink.com 1.10,2013-05-23 01:32:00,
2013-05-22 21:47:00,53.2,52.0,29.94,West,261,0.0,0.0,97,0.00,,,0.16,weatherlink.com 1.10,2013-05-23 01:47:00,
2013-05-22 22:02:00,53.1,52.0,29.93,West,261,0.0,0.0,97,0.00,,,0.16,weatherlink.com 1.10,2013-05-23 02:02:00,
2013-05-22 22:17:00,53.1,52.0,29.94,West,261,0.0,0.0,97,0.00,,,0.16,weatherlink.com 1.10,2013-05-23 02:17:00,
2013-05-22 22:32:00,53.0,52.0,29.94,West,261,0.0,0.0,96,0.00,,,0.16,weatherlink.com 1.10,2013-05-23 02:32:00,
2013-05-22 22:47:00,52.6,52.0,29.93,West,261,0.0,0.0,96,0.00,,,0.16,weatherlink.com 1.10,2013-05-23 02:47:00,
2013-05-22 23:02:00,52.3,51.0,29.94,West,261,0.0,0.0,96,0.00,,,0.16,weatherlink.com 1.10,2013-05-23 03:02:00,
2013-05-22 23:17:00,52.0,51.0,29.93,West,261,0.0,0.0,96,0.00,,,0.16,weatherlink.com 1.10,2013-05-23 03:17:00,
2013-05-22 23:32:00,51.7,51.0,29.93,West,261,0.0,0.0,96,0.00,,,0.16,weatherlink.com 1.10,2013-05-23 03:32:00,
2013-05-22 23:47:00,51.3,50.0,29.92,SW,227,0.0,3.0,96,0.00,,,0.16,weatherlink.com 1.10,2013-05-23 03:47:00,